sensor_id;sensor_type;location;lat;lon;timestamp;pressure;altitude;pressure_sealevel;temperature;humidity
20228;BME280;12195;55.790;37.572;2023-02-19T00:00:51;98252.50;;;-4.35;67.44
20228;BME280;12195;55.790;37.572;2023-02-19T00:03:24;98253.25;;;-4.30;67.26
20228;BME280;12195;55.790;37.572;2023-02-19T00:05:56;98246.45;;;-4.31;67.50
20228;BME280;12195;55.790;37.572;2023-02-19T00:08:30;98249.81;;;-4.29;67.38
20228;BME280;12195;55.790;37.572;2023-02-19T00:11:07;98254.98;;;-4.30;67.59
20228;BME280;12195;55.790;37.572;2023-02-19T00:13:42;98244.69;;;-4.29;67.45
20228;BME280;12195;55.790;37.572;2023-02-19T00:16:24;98248.16;;;-4.31;67.60
20228;BME280;12195;55.790;37.572;2023-02-19T00:18:49;98245.52;;;-4.27;67.50
20228;BME280;12195;55.790;37.572;2023-02-19T00:21:22;98240.02;;;-4.09;67.58
20228;BME280;12195;55.790;37.572;2023-02-19T00:23:57;98240.37;;;-4.25;67.43
20228;BME280;12195;55.790;37.572;2023-02-19T00:26:29;98226.59;;;-4.20;67.56
20228;BME280;12195;55.790;37.572;2023-02-19T00:29:01;98232.41;;;-4.12;67.46
20228;BME280;12195;55.790;37.572;2023-02-19T00:31:34;98231.88;;;-4.29;67.64
20228;BME280;12195;55.790;37.572;2023-02-19T00:34:06;98226.88;;;-4.33;68.07
20228;BME280;12195;55.790;37.572;2023-02-19T00:36:40;98229.41;;;-4.32;67.93
20228;BME280;12195;55.790;37.572;2023-02-19T00:39:15;98225.08;;;-4.30;67.98
20228;BME280;12195;55.790;37.572;2023-02-19T00:41:49;98229.38;;;-4.30;67.77
20228;BME280;12195;55.790;37.572;2023-02-19T00:44:21;98231.94;;;-4.30;67.75
20228;BME280;12195;55.790;37.572;2023-02-19T00:46:53;98222.49;;;-4.28;67.80
20228;BME280;12195;55.790;37.572;2023-02-19T00:49:26;98224.89;;;-4.21;67.68
20228;BME280;12195;55.790;37.572;2023-02-19T00:51:58;98211.53;;;-4.35;67.97
20228;BME280;12195;55.790;37.572;2023-02-19T00:54:30;98217.56;;;-4.37;68.23
20228;BME280;12195;55.790;37.572;2023-02-19T00:57:02;98219.91;;;-4.27;67.61
20228;BME280;12195;55.790;37.572;2023-02-19T00:59:36;98205.50;;;-4.32;67.55
20228;BME280;12195;55.790;37.572;2023-02-19T01:02:08;98204.63;;;-4.31;67.65
20228;BME280;12195;55.790;37.572;2023-02-19T01:04:40;98210.84;;;-4.43;67.82
20228;BME280;12195;55.790;37.572;2023-02-19T01:07:12;98193.77;;;-4.42;67.70
20228;BME280;12195;55.790;37.572;2023-02-19T01:09:45;98186.14;;;-4.45;67.83
20228;BME280;12195;55.790;37.572;2023-02-19T01:12:17;98184.98;;;-4.31;67.63
20228;BME280;12195;55.790;37.572;2023-02-19T01:14:49;98183.53;;;-4.42;67.25
20228;BME280;12195;55.790;37.572;2023-02-19T01:17:21;98181.98;;;-4.51;67.54
20228;BME280;12195;55.790;37.572;2023-02-19T01:19:54;98185.45;;;-4.53;67.76
20228;BME280;12195;55.790;37.572;2023-02-19T01:22:26;98180.36;;;-4.55;68.00
20228;BME280;12195;55.790;37.572;2023-02-19T01:24:58;98168.44;;;-4.56;67.84
20228;BME280;12195;55.790;37.572;2023-02-19T01:27:30;98178.70;;;-4.57;67.91
20228;BME280;12195;55.790;37.572;2023-02-19T01:30:03;98173.61;;;-4.59;68.13
20228;BME280;12195;55.790;37.572;2023-02-19T01:32:35;98171.05;;;-4.59;68.00
20228;BME280;12195;55.790;37.572;2023-02-19T01:35:07;98169.26;;;-4.55;68.06
20228;BME280;12195;55.790;37.572;2023-02-19T01:37:40;98173.61;;;-4.59;68.11
20228;BME280;12195;55.790;37.572;2023-02-19T01:40:12;98165.00;;;-4.55;68.09
20228;BME280;12195;55.790;37.572;2023-02-19T01:42:44;98168.98;;;-4.42;68.22
20228;BME280;12195;55.790;37.572;2023-02-19T01:45:27;98165.91;;;-4.57;67.99
20228;BME280;12195;55.790;37.572;2023-02-19T01:48:08;98156.60;;;-4.61;68.13
20228;BME280;12195;55.790;37.572;2023-02-19T01:51:05;98161.75;;;-4.63;68.31
20228;BME280;12195;55.790;37.572;2023-02-19T01:53:26;98155.69;;;-4.59;68.18
20228;BME280;12195;55.790;37.572;2023-02-19T01:56:00;98155.64;;;-4.56;67.99
20228;BME280;12195;55.790;37.572;2023-02-19T01:58:35;98156.67;;;-4.66;68.28
20228;BME280;12195;55.790;37.572;2023-02-19T02:01:08;98162.66;;;-4.65;68.41
20228;BME280;12195;55.790;37.572;2023-02-19T02:03:43;98156.78;;;-4.70;68.48
20228;BME280;12195;55.790;37.572;2023-02-19T02:06:24;98164.54;;;-4.75;68.67
20228;BME280;12195;55.790;37.572;2023-02-19T02:08:58;98157.55;;;-4.67;68.69
20228;BME280;12195;55.790;37.572;2023-02-19T02:11:50;98164.48;;;-4.72;68.58
20228;BME280;12195;55.790;37.572;2023-02-19T02:14:25;98150.04;;;-4.74;68.66
20228;BME280;12195;55.790;37.572;2023-02-19T02:17:23;98154.33;;;-4.76;68.84
20228;BME280;12195;55.790;37.572;2023-02-19T02:28:22;98153.50;;;-4.77;69.09
20228;BME280;12195;55.790;37.572;2023-02-19T02:31:00;98144.90;;;-4.73;69.10
20228;BME280;12195;55.790;37.572;2023-02-19T02:36:26;98146.52;;;-4.69;69.21
20228;BME280;12195;55.790;37.572;2023-02-19T02:38:59;98161.00;;;-4.68;69.25
20228;BME280;12195;55.790;37.572;2023-02-19T02:41:43;98146.28;;;-4.57;69.13
20228;BME280;12195;55.790;37.572;2023-02-19T02:44:12;98138.77;;;-4.66;68.87
20228;BME280;12195;55.790;37.572;2023-02-19T02:46:45;98137.22;;;-4.73;69.24
20228;BME280;12195;55.790;37.572;2023-02-19T02:49:20;98137.22;;;-4.73;69.11
20228;BME280;12195;55.790;37.572;2023-02-19T02:51:54;98135.41;;;-4.68;69.17
20228;BME280;12195;55.790;37.572;2023-02-19T02:54:30;98132.88;;;-4.69;69.11
20228;BME280;12195;55.790;37.572;2023-02-19T02:57:21;98126.84;;;-4.67;69.24
20228;BME280;12195;55.790;37.572;2023-02-19T02:59:54;98132.84;;;-4.68;69.29
20228;BME280;12195;55.790;37.572;2023-02-19T03:02:28;98121.53;;;-4.58;69.53
20228;BME280;12195;55.790;37.572;2023-02-19T03:05:12;98124.29;;;-4.67;69.22
20228;BME280;12195;55.790;37.572;2023-02-19T03:08:08;98123.55;;;-4.72;69.43
20228;BME280;12195;55.790;37.572;2023-02-19T03:10:44;98124.45;;;-4.74;69.63
20228;BME280;12195;55.790;37.572;2023-02-19T03:13:21;98129.57;;;-4.74;69.62
20228;BME280;12195;55.790;37.572;2023-02-19T03:16:27;98127.01;;;-4.74;69.79
20228;BME280;12195;55.790;37.572;2023-02-19T03:19:19;98124.39;;;-4.71;69.79
20228;BME280;12195;55.790;37.572;2023-02-19T03:22:07;98127.56;;;-4.60;70.04
20228;BME280;12195;55.790;37.572;2023-02-19T03:24:43;98123.55;;;-4.72;70.38
20228;BME280;12195;55.790;37.572;2023-02-19T03:27:34;98123.55;;;-4.72;70.41
20228;BME280;12195;55.790;37.572;2023-02-19T03:30:16;98120.23;;;-4.77;70.36
20228;BME280;12195;55.790;37.572;2023-02-19T03:32:59;98119.30;;;-4.73;70.53
20228;BME280;12195;55.790;37.572;2023-02-19T03:36:17;98110.72;;;-4.70;70.90
20228;BME280;12195;55.790;37.572;2023-02-19T03:38:19;98107.33;;;-4.72;70.76
20228;BME280;12195;55.790;37.572;2023-02-19T03:41:22;98108.13;;;-4.69;70.92
20228;BME280;12195;55.790;37.572;2023-02-19T03:44:14;98101.36;;;-4.71;70.77
20228;BME280;12195;55.790;37.572;2023-02-19T03:46:57;98100.45;;;-4.69;70.85
20228;BME280;12195;55.790;37.572;2023-02-19T03:49:48;98103.02;;;-4.69;70.90
20228;BME280;12195;55.790;37.572;2023-02-19T03:52:45;98102.84;;;-4.61;71.92
20228;BME280;12195;55.790;37.572;2023-02-19T03:55:25;98105.21;;;-4.52;72.31
20228;BME280;12195;55.790;37.572;2023-02-19T03:58:00;98104.42;;;-4.54;72.87
20228;BME280;12195;55.790;37.572;2023-02-19T04:01:01;98104.64;;;-4.65;72.29
20228;BME280;12195;55.790;37.572;2023-02-19T04:03:30;98095.42;;;-4.73;72.15
20228;BME280;12195;55.790;37.572;2023-02-19T04:06:05;98090.22;;;-4.69;72.88
20228;BME280;12195;55.790;37.572;2023-02-19T04:08:39;98095.37;;;-4.70;72.80
20228;BME280;12195;55.790;37.572;2023-02-19T04:11:14;98093.60;;;-4.68;72.86
20228;BME280;12195;55.790;37.572;2023-02-19T04:14:13;98097.13;;;-4.74;72.67
20228;BME280;12195;55.790;37.572;2023-02-19T04:16:40;98097.92;;;-4.70;72.58
20228;BME280;12195;55.790;37.572;2023-02-19T04:19:15;98099.52;;;-4.65;73.47
20228;BME280;12195;55.790;37.572;2023-02-19T04:21:49;98086.84;;;-4.71;73.29
20228;BME280;12195;55.790;37.572;2023-02-19T04:24:28;98093.09;;;-4.44;74.94
20228;BME280;12195;55.790;37.572;2023-02-19T04:26:58;98090.91;;;-4.61;74.60
20228;BME280;12195;55.790;37.572;2023-02-19T04:29:30;98087.32;;;-4.54;75.14
20228;BME280;12195;55.790;37.572;2023-02-19T04:32:02;98081.77;;;-4.74;74.30
20228;BME280;12195;55.790;37.572;2023-02-19T04:34:34;98086.09;;;-4.76;74.30
20228;BME280;12195;55.790;37.572;2023-02-19T04:37:24;98080.97;;;-4.76;74.28
20228;BME280;12195;55.790;37.572;2023-02-19T04:39:56;98076.66;;;-4.74;74.58
20228;BME280;12195;55.790;37.572;2023-02-19T04:42:30;98083.50;;;-4.74;74.51
20228;BME280;12195;55.790;37.572;2023-02-19T04:45:02;98080.04;;;-4.72;74.68
20228;BME280;12195;55.790;37.572;2023-02-19T04:47:34;98082.43;;;-4.64;75.10
20228;BME280;12195;55.790;37.572;2023-02-19T04:50:06;98083.28;;;-4.64;75.25
20228;BME280;12195;55.790;37.572;2023-02-19T04:52:38;98085.95;;;-4.70;75.02
20228;BME280;12195;55.790;37.572;2023-02-19T04:55:11;98067.22;;;-4.70;74.87
20228;BME280;12195;55.790;37.572;2023-02-19T04:57:43;98074.89;;;-4.70;75.10
20228;BME280;12195;55.790;37.572;2023-02-19T05:00:15;98074.97;;;-4.75;74.78
20228;BME280;12195;55.790;37.572;2023-02-19T05:02:48;98076.40;;;-4.62;75.66
20228;BME280;12195;55.790;37.572;2023-02-19T05:05:20;98072.30;;;-4.69;75.01
20228;BME280;12195;55.790;37.572;2023-02-19T05:07:52;98064.37;;;-4.57;75.67
20228;BME280;12195;55.790;37.572;2023-02-19T05:10:24;98069.40;;;-4.54;75.66
20228;BME280;12195;55.790;37.572;2023-02-19T05:12:57;98064.48;;;-4.63;75.13
20228;BME280;12195;55.790;37.572;2023-02-19T05:15:30;98071.22;;;-4.59;75.17
20228;BME280;12195;55.790;37.572;2023-02-19T05:18:03;98065.22;;;-4.58;75.17
20228;BME280;12195;55.790;37.572;2023-02-19T05:20:36;98064.37;;;-4.57;75.12
20228;BME280;12195;55.790;37.572;2023-02-19T05:23:08;98057.55;;;-4.58;74.73
20228;BME280;12195;55.790;37.572;2023-02-19T05:25:41;98063.43;;;-4.53;75.02
20228;BME280;12195;55.790;37.572;2023-02-19T05:28:14;98059.78;;;-4.43;75.82
20228;BME280;12195;55.790;37.572;2023-02-19T05:30:51;98051.21;;;-4.42;75.75
20228;BME280;12195;55.790;37.572;2023-02-19T05:33:24;98053.92;;;-4.48;75.55
20228;BME280;12195;55.790;37.572;2023-02-19T05:35:58;98045.27;;;-4.42;76.19
20228;BME280;12195;55.790;37.572;2023-02-19T05:38:30;98046.77;;;-4.34;76.40
20228;BME280;12195;55.790;37.572;2023-02-19T05:41:14;98043.53;;;-4.42;76.11
20228;BME280;12195;55.790;37.572;2023-02-19T05:43:48;98037.44;;;-4.36;76.25
20228;BME280;12195;55.790;37.572;2023-02-19T05:46:22;98048.44;;;-4.33;76.06
20228;BME280;12195;55.790;37.572;2023-02-19T05:48:55;98045.05;;;-4.33;75.83
20228;BME280;12195;55.790;37.572;2023-02-19T05:51:28;98043.31;;;-4.33;75.52
20228;BME280;12195;55.790;37.572;2023-02-19T05:54:00;98044.11;;;-4.29;75.57
20228;BME280;12195;55.790;37.572;2023-02-19T05:56:38;98043.98;;;-4.25;75.68
20228;BME280;12195;55.790;37.572;2023-02-19T05:59:19;98037.00;;;-4.18;75.70
20228;BME280;12195;55.790;37.572;2023-02-19T06:01:52;98039.47;;;-4.14;75.63
20228;BME280;12195;55.790;37.572;2023-02-19T06:04:25;98043.64;;;-4.10;75.59
20228;BME280;12195;55.790;37.572;2023-02-19T06:06:56;98037.97;;;-3.87;76.50
20228;BME280;12195;55.790;37.572;2023-02-19T06:09:28;98041.73;;;-4.02;75.55
20228;BME280;12195;55.790;37.572;2023-02-19T06:12:02;98035.66;;;-3.98;75.15
20228;BME280;12195;55.790;37.572;2023-02-19T06:14:34;98036.98;;;-3.82;75.79
20228;BME280;12195;55.790;37.572;2023-02-19T06:17:06;98031.92;;;-3.85;75.50
20228;BME280;12195;55.790;37.572;2023-02-19T06:19:39;98031.84;;;-3.82;75.92
20228;BME280;12195;55.790;37.572;2023-02-19T06:22:12;98026.76;;;-3.83;75.16
20228;BME280;12195;55.790;37.572;2023-02-19T06:24:45;98032.57;;;-3.77;74.85
20228;BME280;12195;55.790;37.572;2023-02-19T06:27:18;98027.20;;;-3.68;74.80
20228;BME280;12195;55.790;37.572;2023-02-19T06:29:51;98027.98;;;-3.64;74.92
20228;BME280;12195;55.790;37.572;2023-02-19T06:32:24;98026.20;;;-3.62;74.63
20228;BME280;12195;55.790;37.572;2023-02-19T06:34:56;98029.59;;;-3.60;74.41
20228;BME280;12195;55.790;37.572;2023-02-19T06:37:28;98027.75;;;-3.55;74.14
20228;BME280;12195;55.790;37.572;2023-02-19T06:40:01;98017.98;;;-3.43;73.99
20228;BME280;12195;55.790;37.572;2023-02-19T06:42:33;98034.55;;;-3.22;74.58
20228;BME280;12195;55.790;37.572;2023-02-19T06:45:06;98023.61;;;-3.29;73.55
20228;BME280;12195;55.790;37.572;2023-02-19T06:47:39;98018.34;;;-3.24;72.83
20228;BME280;12195;55.790;37.572;2023-02-19T06:50:14;98010.45;;;-3.17;72.62
20228;BME280;12195;55.790;37.572;2023-02-19T06:52:47;98012.48;;;-2.99;73.66
20228;BME280;12195;55.790;37.572;2023-02-19T06:55:19;98016.84;;;-3.01;73.32
20228;BME280;12195;55.790;37.572;2023-02-19T06:57:51;98015.87;;;-2.97;72.71
20228;BME280;12195;55.790;37.572;2023-02-19T07:00:24;98014.83;;;-2.91;72.19
20228;BME280;12195;55.790;37.572;2023-02-19T07:02:58;97999.18;;;-2.82;72.13
20228;BME280;12195;55.790;37.572;2023-02-19T07:05:30;98000.70;;;-2.77;71.56
20228;BME280;12195;55.790;37.572;2023-02-19T07:08:03;98003.06;;;-2.69;71.20
20228;BME280;12195;55.790;37.572;2023-02-19T07:10:35;98002.05;;;-2.64;70.72
20228;BME280;12195;55.790;37.572;2023-02-19T07:13:08;97992.31;;;-2.54;69.83
20228;BME280;12195;55.790;37.572;2023-02-19T07:15:40;98000.62;;;-2.46;70.06
20228;BME280;12195;55.790;37.572;2023-02-19T07:18:13;97993.52;;;-2.38;69.46
20228;BME280;12195;55.790;37.572;2023-02-19T07:20:44;97989.80;;;-2.28;71.38
20228;BME280;12195;55.790;37.572;2023-02-19T07:23:16;97998.02;;;-2.45;69.17
20228;BME280;12195;55.790;37.572;2023-02-19T07:25:48;97993.81;;;-2.47;69.68
20228;BME280;12195;55.790;37.572;2023-02-19T07:28:21;97981.13;;;-2.52;68.30
20228;BME280;12195;55.790;37.572;2023-02-19T07:30:53;97987.78;;;-2.46;68.46
20228;BME280;12195;55.790;37.572;2023-02-19T07:33:27;97979.86;;;-2.39;68.58
20228;BME280;12195;55.790;37.572;2023-02-19T07:35:59;97983.20;;;-2.37;68.88
20228;BME280;12195;55.790;37.572;2023-02-19T07:38:32;97971.26;;;-2.38;68.37
20228;BME280;12195;55.790;37.572;2023-02-19T07:41:04;97972.16;;;-2.39;66.98
20228;BME280;12195;55.790;37.572;2023-02-19T07:43:37;97965.43;;;-2.43;66.45
20228;BME280;12195;55.790;37.572;2023-02-19T07:46:11;97970.88;;;-2.26;67.99
20228;BME280;12195;55.790;37.572;2023-02-19T07:48:44;97971.26;;;-2.38;67.55
20228;BME280;12195;55.790;37.572;2023-02-19T07:51:18;97967.91;;;-2.40;68.03
20228;BME280;12195;55.790;37.572;2023-02-19T07:53:51;97979.17;;;-2.44;68.84
20228;BME280;12195;55.790;37.572;2023-02-19T07:56:23;97962.05;;;-2.45;68.42
20228;BME280;12195;55.790;37.572;2023-02-19T07:58:58;97962.77;;;-2.40;69.54
20228;BME280;12195;55.790;37.572;2023-02-19T08:01:31;97973.83;;;-2.38;69.71
20228;BME280;12195;55.790;37.572;2023-02-19T08:04:21;97958.70;;;-2.47;69.38
20228;BME280;12195;55.790;37.572;2023-02-19T08:06:54;97954.52;;;-2.23;71.09
20228;BME280;12195;55.790;37.572;2023-02-19T08:09:27;97955.84;;;-2.38;70.56
20228;BME280;12195;55.790;37.572;2023-02-19T08:11:59;97947.20;;;-2.35;69.29
20228;BME280;12195;55.790;37.572;2023-02-19T08:14:50;97955.70;;;-2.07;72.07
20228;BME280;12195;55.790;37.572;2023-02-19T08:17:23;97953.73;;;-2.25;70.65
20228;BME280;12195;55.790;37.572;2023-02-19T08:19:56;97949.92;;;-2.14;72.47
20228;BME280;12195;55.790;37.572;2023-02-19T08:22:30;97949.70;;;-2.08;70.84
20228;BME280;12195;55.790;37.572;2023-02-19T08:25:02;97946.55;;;-1.90;69.74
20228;BME280;12195;55.790;37.572;2023-02-19T08:27:36;97940.86;;;-1.75;68.59
20228;BME280;12195;55.790;37.572;2023-02-19T08:30:09;97944.95;;;-1.69;68.01
20228;BME280;12195;55.790;37.572;2023-02-19T08:32:42;97939.05;;;-1.71;66.95
20228;BME280;12195;55.790;37.572;2023-02-19T08:35:15;97944.58;;;-1.59;71.50
20228;BME280;12195;55.790;37.572;2023-02-19T08:37:47;97945.59;;;-1.87;70.43
20228;BME280;12195;55.790;37.572;2023-02-19T08:40:21;97939.41;;;-1.82;70.81
20228;BME280;12195;55.790;37.572;2023-02-19T08:42:54;97939.51;;;-1.85;71.15
20228;BME280;12195;55.790;37.572;2023-02-19T08:45:26;97932.74;;;-1.87;71.17
20228;BME280;12195;55.790;37.572;2023-02-19T08:47:59;97942.75;;;-1.80;70.26
20228;BME280;12195;55.790;37.572;2023-02-19T08:50:33;97935.34;;;-1.64;69.95
20228;BME280;12195;55.790;37.572;2023-02-19T08:53:06;97934.86;;;-1.51;71.25
20228;BME280;12195;55.790;37.572;2023-02-19T08:55:39;97931.09;;;-1.65;71.46
20228;BME280;12195;55.790;37.572;2023-02-19T08:58:12;97930.98;;;-1.87;71.22
20228;BME280;12195;55.790;37.572;2023-02-19T09:00:45;97932.30;;;-2.00;72.42
20228;BME280;12195;55.790;37.572;2023-02-19T09:03:17;97926.70;;;-2.11;72.78
20228;BME280;12195;55.790;37.572;2023-02-19T09:05:49;97930.26;;;-2.15;72.34
20228;BME280;12195;55.790;37.572;2023-02-19T09:08:23;97920.84;;;-2.16;72.88
20228;BME280;12195;55.790;37.572;2023-02-19T09:11:03;97920.03;;;-2.16;74.06
20228;BME280;12195;55.790;37.572;2023-02-19T09:13:38;97915.61;;;-2.13;74.38
20228;BME280;12195;55.790;37.572;2023-02-19T09:16:11;97912.36;;;-2.18;73.61
20228;BME280;12195;55.790;37.572;2023-02-19T09:18:44;97921.66;;;-2.14;72.49
20228;BME280;12195;55.790;37.572;2023-02-19T09:21:17;97904.16;;;-2.03;73.62
20228;BME280;12195;55.790;37.572;2023-02-19T09:23:49;97907.05;;;-2.13;72.40
20228;BME280;12195;55.790;37.572;2023-02-19T09:26:22;97907.45;;;-1.99;73.09
20228;BME280;12195;55.790;37.572;2023-02-19T09:28:55;97908.71;;;-2.11;72.69
20228;BME280;12195;55.790;37.572;2023-02-19T09:31:27;97926.21;;;-1.97;74.83
20228;BME280;12195;55.790;37.572;2023-02-19T09:34:00;97908.08;;;-2.17;73.05
20228;BME280;12195;55.790;37.572;2023-02-19T09:36:33;97902.67;;;-2.10;73.74
20228;BME280;12195;55.790;37.572;2023-02-19T09:39:07;97891.77;;;-2.16;73.22
20228;BME280;12195;55.790;37.572;2023-02-19T09:41:53;97893.38;;;-2.14;72.80
20228;BME280;12195;55.790;37.572;2023-02-19T09:44:38;97889.81;;;-2.10;71.99
20228;BME280;12195;55.790;37.572;2023-02-19T09:47:06;97882.87;;;-2.08;71.52
20228;BME280;12195;55.790;37.572;2023-02-19T09:49:41;97886.98;;;-2.02;71.66
20228;BME280;12195;55.790;37.572;2023-02-19T09:52:31;97886.84;;;-1.98;72.17
20228;BME280;12195;55.790;37.572;2023-02-19T09:55:13;97884.61;;;-1.84;72.79
20228;BME280;12195;55.790;37.572;2023-02-19T09:57:46;97883.56;;;-1.78;72.42
20228;BME280;12195;55.790;37.572;2023-02-19T10:00:24;97878.14;;;-1.71;73.16
20228;BME280;12195;55.790;37.572;2023-02-19T10:03:03;97881.23;;;-1.61;74.06
20228;BME280;12195;55.790;37.572;2023-02-19T10:05:35;97872.61;;;-1.60;72.76
20228;BME280;12195;55.790;37.572;2023-02-19T10:08:13;97868.03;;;-1.52;72.26
20228;BME280;12195;55.790;37.572;2023-02-19T10:10:45;97867.77;;;-1.45;71.71
20228;BME280;12195;55.790;37.572;2023-02-19T10:13:20;97878.11;;;-1.46;71.61
20228;BME280;12195;55.790;37.572;2023-02-19T10:15:57;97863.73;;;-1.52;70.62
20228;BME280;12195;55.790;37.572;2023-02-19T10:18:41;97865.25;;;-1.46;70.18
20228;BME280;12195;55.790;37.572;2023-02-19T10:21:21;97867.42;;;-1.36;69.10
20228;BME280;12195;55.790;37.572;2023-02-19T10:23:55;97867.08;;;-1.27;67.83
20228;BME280;12195;55.790;37.572;2023-02-19T10:26:28;97871.77;;;-1.15;68.54
20228;BME280;12195;55.790;37.572;2023-02-19T10:29:03;97861.72;;;-1.21;69.10
20228;BME280;12195;55.790;37.572;2023-02-19T10:31:35;97875.05;;;-1.33;67.17
20228;BME280;12195;55.790;37.572;2023-02-19T10:34:21;97872.33;;;-1.30;68.20
20228;BME280;12195;55.790;37.572;2023-02-19T10:36:43;97867.69;;;-1.20;68.92
20228;BME280;12195;55.790;37.572;2023-02-19T10:39:37;97864.95;;;-1.16;70.62
20228;BME280;12195;55.790;37.572;2023-02-19T10:42:20;97877.16;;;-1.21;69.12
20228;BME280;12195;55.790;37.572;2023-02-19T10:45:00;97874.23;;;-1.12;69.48
20228;BME280;12195;55.790;37.572;2023-02-19T10:47:31;97861.91;;;-1.04;70.49
20228;BME280;12195;55.790;37.572;2023-02-19T10:50:03;97866.05;;;-1.00;69.60
20228;BME280;12195;55.790;37.572;2023-02-19T10:52:36;97865.85;;;-0.95;68.44
20228;BME280;12195;55.790;37.572;2023-02-19T10:55:35;97862.20;;;-0.90;67.60
20228;BME280;12195;55.790;37.572;2023-02-19T10:58:21;97862.80;;;-0.83;67.45
20228;BME280;12195;55.790;37.572;2023-02-19T11:01:19;97852.55;;;-0.85;67.79
20228;BME280;12195;55.790;37.572;2023-02-19T11:04:17;97858.72;;;-0.89;66.03
20228;BME280;12195;55.790;37.572;2023-02-19T11:06:46;97859.86;;;-0.74;67.44
20228;BME280;12195;55.790;37.572;2023-02-19T11:09:38;97847.18;;;-0.79;66.91
20228;BME280;12195;55.790;37.572;2023-02-19T11:12:13;97846.16;;;-0.75;68.10
20228;BME280;12195;55.790;37.572;2023-02-19T11:14:47;97843.70;;;-0.78;69.22
20228;BME280;12195;55.790;37.572;2023-02-19T11:17:29;97856.83;;;-0.84;71.63
20228;BME280;12195;55.790;37.572;2023-02-19T11:20:06;97852.16;;;-0.96;73.39
20228;BME280;12195;55.790;37.572;2023-02-19T11:22:42;97847.17;;;-1.00;73.43
20228;BME280;12195;55.790;37.572;2023-02-19T11:25:19;97846.05;;;-0.93;72.62
20228;BME280;12195;55.790;37.572;2023-02-19T11:31:22;97838.91;;;-0.65;71.88
20228;BME280;12195;55.790;37.572;2023-02-19T11:34:00;97831.27;;;-0.47;72.17
20228;BME280;12195;55.790;37.572;2023-02-19T11:36:34;97836.50;;;-0.28;69.71
20228;BME280;12195;55.790;37.572;2023-02-19T11:44:58;97850.70;;;-1.03;69.59
20228;BME280;12195;55.790;37.572;2023-02-19T11:47:49;97837.65;;;-1.20;68.49
20228;BME280;12195;55.790;37.572;2023-02-19T11:53:33;97846.59;;;-1.30;68.60
20228;BME280;12195;55.790;37.572;2023-02-19T11:56:31;97837.77;;;-1.46;72.54
20228;BME280;12195;55.790;37.572;2023-02-19T12:02:13;97837.52;;;-1.84;72.79
20228;BME280;12195;55.790;37.572;2023-02-19T12:04:58;97839.61;;;-1.95;72.81
20228;BME280;12195;55.790;37.572;2023-02-19T12:13:40;97837.44;;;-1.83;72.83
20228;BME280;12195;55.790;37.572;2023-02-19T12:21:44;97843.37;;;-1.81;72.82
20228;BME280;12195;55.790;37.572;2023-02-19T12:27:24;97830.05;;;-1.92;72.98
20228;BME280;12195;55.790;37.572;2023-02-19T12:30:08;97831.00;;;-1.94;72.47
20228;BME280;12195;55.790;37.572;2023-02-19T12:33:29;97829.05;;;-1.88;72.65
20228;BME280;12195;55.790;37.572;2023-02-19T12:41:00;97825.34;;;-2.04;71.57
20228;BME280;12195;55.790;37.572;2023-02-19T12:43:26;97832.28;;;-2.06;71.59
20228;BME280;12195;55.790;37.572;2023-02-19T12:46:11;97829.86;;;-2.10;72.36
20228;BME280;12195;55.790;37.572;2023-02-19T12:49:04;97829.95;;;-2.13;71.79
20228;BME280;12195;55.790;37.572;2023-02-19T12:51:49;97829.04;;;-2.11;72.01
20228;BME280;12195;55.790;37.572;2023-02-19T12:54:29;97830.48;;;-2.04;72.84
20228;BME280;12195;55.790;37.572;2023-02-19T12:59:48;97831.38;;;-2.05;72.42
20228;BME280;12195;55.790;37.572;2023-02-19T13:02:41;97837.66;;;-1.89;72.71
20228;BME280;12195;55.790;37.572;2023-02-19T13:10:49;97837.77;;;-1.92;73.41
20228;BME280;12195;55.790;37.572;2023-02-19T13:13:27;97840.52;;;-1.73;73.71
20228;BME280;12195;55.790;37.572;2023-02-19T13:16:06;97837.28;;;-1.78;73.21
20228;BME280;12195;55.790;37.572;2023-02-19T13:21:23;97840.04;;;-2.07;70.74
20228;BME280;12195;55.790;37.572;2023-02-19T13:24:22;97843.03;;;-2.19;70.82
20228;BME280;12195;55.790;37.572;2023-02-19T13:27:03;97836.69;;;-2.34;70.89
20228;BME280;12195;55.790;37.572;2023-02-19T13:35:30;97840.02;;;-2.56;72.17
20228;BME280;12195;55.790;37.572;2023-02-19T13:38:01;97838.70;;;-2.68;72.57
20228;BME280;12195;55.790;37.572;2023-02-19T13:40:37;97850.73;;;-2.70;72.31
20228;BME280;12195;55.790;37.572;2023-02-19T13:43:24;97837.98;;;-2.73;71.92
20228;BME280;12195;55.790;37.572;2023-02-19T13:46:13;97846.09;;;-2.59;74.43
20228;BME280;12195;55.790;37.572;2023-02-19T13:48:34;97836.00;;;-2.65;74.86
20228;BME280;12195;55.790;37.572;2023-02-19T13:53:59;97835.48;;;-2.74;73.78
20228;BME280;12195;55.790;37.572;2023-02-19T13:56:35;97835.54;;;-2.76;73.54
20228;BME280;12195;55.790;37.572;2023-02-19T14:04:48;97831.34;;;-2.78;72.17
20228;BME280;12195;55.790;37.572;2023-02-19T14:10:00;97829.77;;;-2.82;71.54
20228;BME280;12195;55.790;37.572;2023-02-19T14:12:34;97820.81;;;-2.71;72.53
20228;BME280;12195;55.790;37.572;2023-02-19T14:17:57;97819.72;;;-2.90;71.68
20228;BME280;12195;55.790;37.572;2023-02-19T14:20:41;97822.58;;;-2.99;72.56
20228;BME280;12195;55.790;37.572;2023-02-19T14:23:27;97818.43;;;-3.03;73.53
20228;BME280;12195;55.790;37.572;2023-02-19T14:25:54;97819.23;;;-3.01;75.27
20228;BME280;12195;55.790;37.572;2023-02-19T14:28:35;97816.28;;;-3.16;74.25
20228;BME280;12195;55.790;37.572;2023-02-19T14:31:20;97808.75;;;-3.21;74.72
20228;BME280;12195;55.790;37.572;2023-02-19T14:34:12;97804.56;;;-3.23;74.25
20228;BME280;12195;55.790;37.572;2023-02-19T14:39:26;97810.84;;;-3.33;73.64
20228;BME280;12195;55.790;37.572;2023-02-19T14:42:07;97810.80;;;-3.32;74.11
20228;BME280;12195;55.790;37.572;2023-02-19T14:44:52;97815.84;;;-3.29;74.70
20228;BME280;12195;55.790;37.572;2023-02-19T14:47:22;97808.28;;;-3.33;74.16
20228;BME280;12195;55.790;37.572;2023-02-19T14:50:12;97807.54;;;-3.37;74.92
20228;BME280;12195;55.790;37.572;2023-02-19T14:52:44;97800.82;;;-3.41;74.20
20228;BME280;12195;55.790;37.572;2023-02-19T14:55:35;97799.16;;;-3.42;74.02
20228;BME280;12195;55.790;37.572;2023-02-19T14:58:16;97800.74;;;-3.38;74.77